sensor_id;sensor_type;location;lat;lon;timestamp;P1;P2;P0
43479;PMS5003;29067;35.492;-97.520;2023-07-13T00:00:11;10;10;
43479;PMS5003;29067;35.492;-97.520;2023-07-13T00:02:40;6;6;
43479;PMS5003;29067;35.492;-97.520;2023-07-13T00:05:08;8;8;
43479;PMS5003;29067;35.492;-97.520;2023-07-13T00:07:36;6;6;
43479;PMS5003;29067;35.492;-97.520;2023-07-13T00:10:05;9;8;
43479;PMS5003;29067;35.492;-97.520;2023-07-13T00:12:34;10;8;
43479;PMS5003;29067;35.492;-97.520;2023-07-13T00:15:07;10;9;
43479;PMS5003;29067;35.492;-97.520;2023-07-13T00:17:39;8;8;
43479;PMS5003;29067;35.492;-97.520;2023-07-13T00:20:07;6;6;
43479;PMS5003;29067;35.492;-97.520;2023-07-13T00:22:36;8;8;
43479;PMS5003;29067;35.492;-97.520;2023-07-13T00:25:04;8;8;
43479;PMS5003;29067;35.492;-97.520;2023-07-13T00:27:33;8;8;
43479;PMS5003;29067;35.492;-97.520;2023-07-13T00:30:01;6;6;
43479;PMS5003;29067;35.492;-97.520;2023-07-13T00:32:30;5;5;
43479;PMS5003;29067;35.492;-97.520;2023-07-13T00:34:58;10;8;
43479;PMS5003;29067;35.492;-97.520;2023-07-13T00:37:26;8;8;
43479;PMS5003;29067;35.492;-97.520;2023-07-13T00:39:54;12;9;
43479;PMS5003;29067;35.492;-97.520;2023-07-13T00:42:23;8;7;
43479;PMS5003;29067;35.492;-97.520;2023-07-13T00:46:02;7;6;
43479;PMS5003;29067;35.492;-97.520;2023-07-13T00:48:42;9;7;
43479;PMS5003;29067;35.492;-97.520;2023-07-13T00:51:12;9;7;
43479;PMS5003;29067;35.492;-97.520;2023-07-13T00:53:42;9;8;
43479;PMS5003;29067;35.492;-97.520;2023-07-13T00:56:11;6;6;
43479;PMS5003;29067;35.492;-97.520;2023-07-13T00:58:39;12;8;
43479;PMS5003;29067;35.492;-97.520;2023-07-13T01:01:07;6;6;
43479;PMS5003;29067;35.492;-97.520;2023-07-13T01:03:35;9;8;
43479;PMS5003;29067;35.492;-97.520;2023-07-13T01:06:03;9;8;
43479;PMS5003;29067;35.492;-97.520;2023-07-13T01:08:32;8;6;
43479;PMS5003;29067;35.492;-97.520;2023-07-13T01:11:00;13;9;
43479;PMS5003;29067;35.492;-97.520;2023-07-13T01:13:28;6;5;
43479;PMS5003;29067;35.492;-97.520;2023-07-13T01:15:56;6;5;
43479;PMS5003;29067;35.492;-97.520;2023-07-13T01:18:29;12;9;
43479;PMS5003;29067;35.492;-97.520;2023-07-13T01:20:59;7;6;
43479;PMS5003;29067;35.492;-97.520;2023-07-13T01:23:31;7;7;
43479;PMS5003;29067;35.492;-97.520;2023-07-13T01:25:59;6;6;
43479;PMS5003;29067;35.492;-97.520;2023-07-13T01:28:28;6;4;
43479;PMS5003;29067;35.492;-97.520;2023-07-13T01:30:56;8;6;
43479;PMS5003;29067;35.492;-97.520;2023-07-13T01:33:26;6;6;
43479;PMS5003;29067;35.492;-97.520;2023-07-13T01:35:54;8;8;
43479;PMS5003;29067;35.492;-97.520;2023-07-13T01:38:22;9;8;
43479;PMS5003;29067;35.492;-97.520;2023-07-13T01:40:51;6;5;
43479;PMS5003;29067;35.492;-97.520;2023-07-13T01:43:20;8;6;
43479;PMS5003;29067;35.492;-97.520;2023-07-13T01:45:48;7;6;
43479;PMS5003;29067;35.492;-97.520;2023-07-13T01:48:17;7;6;
43479;PMS5003;29067;35.492;-97.520;2023-07-13T01:50:45;8;6;
43479;PMS5003;29067;35.492;-97.520;2023-07-13T01:53:13;6;6;
43479;PMS5003;29067;35.492;-97.520;2023-07-13T01:55:42;7;6;
43479;PMS5003;29067;35.492;-97.520;2023-07-13T01:58:10;8;7;
43479;PMS5003;29067;35.492;-97.520;2023-07-13T02:00:39;6;6;
43479;PMS5003;29067;35.492;-97.520;2023-07-13T02:03:07;6;6;
43479;PMS5003;29067;35.492;-97.520;2023-07-13T02:05:35;8;7;
43479;PMS5003;29067;35.492;-97.520;2023-07-13T02:08:04;7;6;
43479;PMS5003;29067;35.492;-97.520;2023-07-13T02:10:32;7;6;
43479;PMS5003;29067;35.492;-97.520;2023-07-13T02:13:01;7;6;
43479;PMS5003;29067;35.492;-97.520;2023-07-13T02:15:30;8;7;
43479;PMS5003;29067;35.492;-97.520;2023-07-13T02:17:58;10;7;
43479;PMS5003;29067;35.492;-97.520;2023-07-13T02:20:26;6;6;
43479;PMS5003;29067;35.492;-97.520;2023-07-13T02:22:55;9;6;
43479;PMS5003;29067;35.492;-97.520;2023-07-13T02:25:22;7;7;
43479;PMS5003;29067;35.492;-97.520;2023-07-13T02:27:51;7;7;
43479;PMS5003;29067;35.492;-97.520;2023-07-13T02:30:24;7;7;
43479;PMS5003;29067;35.492;-97.520;2023-07-13T02:32:53;7;6;
43479;PMS5003;29067;35.492;-97.520;2023-07-13T02:35:27;8;7;
43479;PMS5003;29067;35.492;-97.520;2023-07-13T02:37:57;8;7;
43479;PMS5003;29067;35.492;-97.520;2023-07-13T02:40:25;10;7;
43479;PMS5003;29067;35.492;-97.520;2023-07-13T02:42:53;9;7;
43479;PMS5003;29067;35.492;-97.520;2023-07-13T02:45:21;5;5;
43479;PMS5003;29067;35.492;-97.520;2023-07-13T02:47:50;10;7;
43479;PMS5003;29067;35.492;-97.520;2023-07-13T02:50:18;7;7;
43479;PMS5003;29067;35.492;-97.520;2023-07-13T02:52:46;7;6;
43479;PMS5003;29067;35.492;-97.520;2023-07-13T02:55:14;7;7;
43479;PMS5003;29067;35.492;-97.520;2023-07-13T02:57:42;6;5;
43479;PMS5003;29067;35.492;-97.520;2023-07-13T03:00:11;8;7;
43479;PMS5003;29067;35.492;-97.520;2023-07-13T03:02:39;6;6;
43479;PMS5003;29067;35.492;-97.520;2023-07-13T03:05:07;10;9;
43479;PMS5003;29067;35.492;-97.520;2023-07-13T03:07:36;8;8;
43479;PMS5003;29067;35.492;-97.520;2023-07-13T03:10:05;13;12;
43479;PMS5003;29067;35.492;-97.520;2023-07-13T03:12:33;9;9;
43479;PMS5003;29067;35.492;-97.520;2023-07-13T03:15:02;10;8;
43479;PMS5003;29067;35.492;-97.520;2023-07-13T03:17:31;12;11;
43479;PMS5003;29067;35.492;-97.520;2023-07-13T03:19:59;11;9;
43479;PMS5003;29067;35.492;-97.520;2023-07-13T03:22:27;11;11;
43479;PMS5003;29067;35.492;-97.520;2023-07-13T03:24:56;11;11;
43479;PMS5003;29067;35.492;-97.520;2023-07-13T03:27:24;14;13;
43479;PMS5003;29067;35.492;-97.520;2023-07-13T03:29:52;17;16;
43479;PMS5003;29067;35.492;-97.520;2023-07-13T03:32:21;18;17;
43479;PMS5003;29067;35.492;-97.520;2023-07-13T03:34:49;14;14;
43479;PMS5003;29067;35.492;-97.520;2023-07-13T03:37:17;7;7;
43479;PMS5003;29067;35.492;-97.520;2023-07-13T03:39:46;9;8;
43479;PMS5003;29067;35.492;-97.520;2023-07-13T03:42:15;9;8;
43479;PMS5003;29067;35.492;-97.520;2023-07-13T03:44:43;11;10;
43479;PMS5003;29067;35.492;-97.520;2023-07-13T03:47:11;13;13;
43479;PMS5003;29067;35.492;-97.520;2023-07-13T03:49:39;8;8;
43479;PMS5003;29067;35.492;-97.520;2023-07-13T03:52:08;9;8;
43479;PMS5003;29067;35.492;-97.520;2023-07-13T03:54:36;10;10;
43479;PMS5003;29067;35.492;-97.520;2023-07-13T03:57:04;9;8;
43479;PMS5003;29067;35.492;-97.520;2023-07-13T03:59:32;8;8;
43479;PMS5003;29067;35.492;-97.520;2023-07-13T04:02:01;8;7;
43479;PMS5003;29067;35.492;-97.520;2023-07-13T04:04:29;28;23;
43479;PMS5003;29067;35.492;-97.520;2023-07-13T04:06:57;11;9;
43479;PMS5003;29067;35.492;-97.520;2023-07-13T04:09:25;11;8;
43479;PMS5003;29067;35.492;-97.520;2023-07-13T04:11:53;7;7;
43479;PMS5003;29067;35.492;-97.520;2023-07-13T04:14:21;8;7;
43479;PMS5003;29067;35.492;-97.520;2023-07-13T04:16:49;10;8;
43479;PMS5003;29067;35.492;-97.520;2023-07-13T04:19:18;9;7;
43479;PMS5003;29067;35.492;-97.520;2023-07-13T04:21:46;10;9;
43479;PMS5003;29067;35.492;-97.520;2023-07-13T04:24:14;12;9;
43479;PMS5003;29067;35.492;-97.520;2023-07-13T04:26:43;10;9;
43479;PMS5003;29067;35.492;-97.520;2023-07-13T04:29:11;11;11;
43479;PMS5003;29067;35.492;-97.520;2023-07-13T04:31:39;11;11;
43479;PMS5003;29067;35.492;-97.520;2023-07-13T04:34:07;8;8;
43479;PMS5003;29067;35.492;-97.520;2023-07-13T04:36:35;10;8;
43479;PMS5003;29067;35.492;-97.520;2023-07-13T04:39:03;11;11;
43479;PMS5003;29067;35.492;-97.520;2023-07-13T04:41:32;13;11;
43479;PMS5003;29067;35.492;-97.520;2023-07-13T04:44:00;12;11;
43479;PMS5003;29067;35.492;-97.520;2023-07-13T04:46:28;12;10;
43479;PMS5003;29067;35.492;-97.520;2023-07-13T04:51:06;10;9;
43479;PMS5003;29067;35.492;-97.520;2023-07-13T04:53:34;11;10;
43479;PMS5003;29067;35.492;-97.520;2023-07-13T04:56:03;10;10;
43479;PMS5003;29067;35.492;-97.520;2023-07-13T04:58:32;9;9;
43479;PMS5003;29067;35.492;-97.520;2023-07-13T05:01:01;10;9;
43479;PMS5003;29067;35.492;-97.520;2023-07-13T05:03:30;11;10;
43479;PMS5003;29067;35.492;-97.520;2023-07-13T05:05:59;10;10;
43479;PMS5003;29067;35.492;-97.520;2023-07-13T05:08:29;10;10;
43479;PMS5003;29067;35.492;-97.520;2023-07-13T05:10:59;9;9;
43479;PMS5003;29067;35.492;-97.520;2023-07-13T05:13:27;13;9;
43479;PMS5003;29067;35.492;-97.520;2023-07-13T05:15:56;12;11;
43479;PMS5003;29067;35.492;-97.520;2023-07-13T05:18:25;12;12;
43479;PMS5003;29067;35.492;-97.520;2023-07-13T05:21:01;9;8;
43479;PMS5003;29067;35.492;-97.520;2023-07-13T05:23:33;10;9;
43479;PMS5003;29067;35.492;-97.520;2023-07-13T05:26:03;9;9;
43479;PMS5003;29067;35.492;-97.520;2023-07-13T05:28:32;10;10;
43479;PMS5003;29067;35.492;-97.520;2023-07-13T05:31:00;11;10;
43479;PMS5003;29067;35.492;-97.520;2023-07-13T05:33:28;11;10;
43479;PMS5003;29067;35.492;-97.520;2023-07-13T05:35:56;13;11;
43479;PMS5003;29067;35.492;-97.520;2023-07-13T05:38:24;9;8;
43479;PMS5003;29067;35.492;-97.520;2023-07-13T05:40:53;12;12;
43479;PMS5003;29067;35.492;-97.520;2023-07-13T05:43:23;9;9;
43479;PMS5003;29067;35.492;-97.520;2023-07-13T05:45:52;13;10;
43479;PMS5003;29067;35.492;-97.520;2023-07-13T05:48:22;12;11;
43479;PMS5003;29067;35.492;-97.520;2023-07-13T05:50:50;10;10;
43479;PMS5003;29067;35.492;-97.520;2023-07-13T05:53:18;8;7;
43479;PMS5003;29067;35.492;-97.520;2023-07-13T05:55:47;13;12;
43479;PMS5003;29067;35.492;-97.520;2023-07-13T05:58:15;12;12;
43479;PMS5003;29067;35.492;-97.520;2023-07-13T06:00:44;13;11;
43479;PMS5003;29067;35.492;-97.520;2023-07-13T06:03:12;11;11;
43479;PMS5003;29067;35.492;-97.520;2023-07-13T06:05:40;12;11;
43479;PMS5003;29067;35.492;-97.520;2023-07-13T06:08:08;10;10;
43479;PMS5003;29067;35.492;-97.520;2023-07-13T06:10:36;12;9;
43479;PMS5003;29067;35.492;-97.520;2023-07-13T06:13:04;12;10;
43479;PMS5003;29067;35.492;-97.520;2023-07-13T06:15:32;13;11;
43479;PMS5003;29067;35.492;-97.520;2023-07-13T06:18:00;12;10;
43479;PMS5003;29067;35.492;-97.520;2023-07-13T06:20:29;13;10;
43479;PMS5003;29067;35.492;-97.520;2023-07-13T06:22:57;14;13;
43479;PMS5003;29067;35.492;-97.520;2023-07-13T06:25:26;11;11;
43479;PMS5003;29067;35.492;-97.520;2023-07-13T06:27:53;12;11;
43479;PMS5003;29067;35.492;-97.520;2023-07-13T06:30:23;14;12;
43479;PMS5003;29067;35.492;-97.520;2023-07-13T06:32:51;14;14;
43479;PMS5003;29067;35.492;-97.520;2023-07-13T06:35:19;15;11;
43479;PMS5003;29067;35.492;-97.520;2023-07-13T06:37:47;12;11;
43479;PMS5003;29067;35.492;-97.520;2023-07-13T06:40:16;13;12;
43479;PMS5003;29067;35.492;-97.520;2023-07-13T06:42:44;11;11;
43479;PMS5003;29067;35.492;-97.520;2023-07-13T06:45:12;13;12;
43479;PMS5003;29067;35.492;-97.520;2023-07-13T06:47:40;11;10;
43479;PMS5003;29067;35.492;-97.520;2023-07-13T06:50:09;14;12;
43479;PMS5003;29067;35.492;-97.520;2023-07-13T06:52:37;10;10;
43479;PMS5003;29067;35.492;-97.520;2023-07-13T06:55:05;13;12;
43479;PMS5003;29067;35.492;-97.520;2023-07-13T06:57:34;11;10;
43479;PMS5003;29067;35.492;-97.520;2023-07-13T07:00:03;12;11;
43479;PMS5003;29067;35.492;-97.520;2023-07-13T07:02:31;11;11;
43479;PMS5003;29067;35.492;-97.520;2023-07-13T07:04:59;12;11;
43479;PMS5003;29067;35.492;-97.520;2023-07-13T07:07:28;11;11;
43479;PMS5003;29067;35.492;-97.520;2023-07-13T07:09:56;11;9;
43479;PMS5003;29067;35.492;-97.520;2023-07-13T07:12:24;11;11;
43479;PMS5003;29067;35.492;-97.520;2023-07-13T07:14:53;13;12;
43479;PMS5003;29067;35.492;-97.520;2023-07-13T07:17:21;10;9;
43479;PMS5003;29067;35.492;-97.520;2023-07-13T07:19:49;16;11;
43479;PMS5003;29067;35.492;-97.520;2023-07-13T07:22:17;11;11;
43479;PMS5003;29067;35.492;-97.520;2023-07-13T07:24:46;13;13;
43479;PMS5003;29067;35.492;-97.520;2023-07-13T07:27:14;12;12;
43479;PMS5003;29067;35.492;-97.520;2023-07-13T07:29:42;12;11;
43479;PMS5003;29067;35.492;-97.520;2023-07-13T07:32:11;12;12;
43479;PMS5003;29067;35.492;-97.520;2023-07-13T07:34:39;12;12;
43479;PMS5003;29067;35.492;-97.520;2023-07-13T07:37:09;12;11;
43479;PMS5003;29067;35.492;-97.520;2023-07-13T07:39:40;12;11;
43479;PMS5003;29067;35.492;-97.520;2023-07-13T07:42:09;9;9;
43479;PMS5003;29067;35.492;-97.520;2023-07-13T07:44:37;15;13;
43479;PMS5003;29067;35.492;-97.520;2023-07-13T07:47:06;13;10;
43479;PMS5003;29067;35.492;-97.520;2023-07-13T07:49:35;13;12;
43479;PMS5003;29067;35.492;-97.520;2023-07-13T07:52:03;9;9;
43479;PMS5003;29067;35.492;-97.520;2023-07-13T07:54:32;15;14;
43479;PMS5003;29067;35.492;-97.520;2023-07-13T07:57:00;11;9;
43479;PMS5003;29067;35.492;-97.520;2023-07-13T07:59:28;9;8;
43479;PMS5003;29067;35.492;-97.520;2023-07-13T08:01:56;10;10;
43479;PMS5003;29067;35.492;-97.520;2023-07-13T08:04:24;15;11;
43479;PMS5003;29067;35.492;-97.520;2023-07-13T08:06:53;17;13;
43479;PMS5003;29067;35.492;-97.520;2023-07-13T08:09:21;10;10;
43479;PMS5003;29067;35.492;-97.520;2023-07-13T08:11:49;11;10;
43479;PMS5003;29067;35.492;-97.520;2023-07-13T08:14:17;12;11;
43479;PMS5003;29067;35.492;-97.520;2023-07-13T08:16:45;14;11;
43479;PMS5003;29067;35.492;-97.520;2023-07-13T08:19:13;10;10;
43479;PMS5003;29067;35.492;-97.520;2023-07-13T08:21:41;11;11;
43479;PMS5003;29067;35.492;-97.520;2023-07-13T08:24:09;14;12;
43479;PMS5003;29067;35.492;-97.520;2023-07-13T08:26:38;12;11;
43479;PMS5003;29067;35.492;-97.520;2023-07-13T08:29:06;14;12;
43479;PMS5003;29067;35.492;-97.520;2023-07-13T08:31:34;12;11;
43479;PMS5003;29067;35.492;-97.520;2023-07-13T08:34:03;12;11;
43479;PMS5003;29067;35.492;-97.520;2023-07-13T08:36:32;16;12;
43479;PMS5003;29067;35.492;-97.520;2023-07-13T08:39:00;11;11;
43479;PMS5003;29067;35.492;-97.520;2023-07-13T08:41:28;11;10;
43479;PMS5003;29067;35.492;-97.520;2023-07-13T08:43:57;14;13;
43479;PMS5003;29067;35.492;-97.520;2023-07-13T08:46:28;11;10;
43479;PMS5003;29067;35.492;-97.520;2023-07-13T08:49:02;14;12;
43479;PMS5003;29067;35.492;-97.520;2023-07-13T08:51:39;12;11;
43479;PMS5003;29067;35.492;-97.520;2023-07-13T08:54:17;12;11;
43479;PMS5003;29067;35.492;-97.520;2023-07-13T08:56:50;12;11;
43479;PMS5003;29067;35.492;-97.520;2023-07-13T08:59:24;11;10;
43479;PMS5003;29067;35.492;-97.520;2023-07-13T09:02:03;13;12;
43479;PMS5003;29067;35.492;-97.520;2023-07-13T09:04:46;14;13;
43479;PMS5003;29067;35.492;-97.520;2023-07-13T09:07:21;15;13;
43479;PMS5003;29067;35.492;-97.520;2023-07-13T09:09:59;13;13;
43479;PMS5003;29067;35.492;-97.520;2023-07-13T09:12:43;10;10;
43479;PMS5003;29067;35.492;-97.520;2023-07-13T09:15:22;10;10;
43479;PMS5003;29067;35.492;-97.520;2023-07-13T09:17:55;10;10;
43479;PMS5003;29067;35.492;-97.520;2023-07-13T09:20:30;11;11;
43479;PMS5003;29067;35.492;-97.520;2023-07-13T09:23:02;12;10;
43479;PMS5003;29067;35.492;-97.520;2023-07-13T09:25:38;12;10;
43479;PMS5003;29067;35.492;-97.520;2023-07-13T09:28:10;10;9;
43479;PMS5003;29067;35.492;-97.520;2023-07-13T09:30:45;11;11;
43479;PMS5003;29067;35.492;-97.520;2023-07-13T09:33:17;11;11;
43479;PMS5003;29067;35.492;-97.520;2023-07-13T09:35:46;9;8;
43479;PMS5003;29067;35.492;-97.520;2023-07-13T09:38:15;12;12;
43479;PMS5003;29067;35.492;-97.520;2023-07-13T09:40:49;12;11;
43479;PMS5003;29067;35.492;-97.520;2023-07-13T09:43:26;10;10;
43479;PMS5003;29067;35.492;-97.520;2023-07-13T09:45:54;10;10;
43479;PMS5003;29067;35.492;-97.520;2023-07-13T09:48:22;12;11;
43479;PMS5003;29067;35.492;-97.520;2023-07-13T09:50:54;12;12;
43479;PMS5003;29067;35.492;-97.520;2023-07-13T09:53:22;13;11;
43479;PMS5003;29067;35.492;-97.520;2023-07-13T09:55:51;11;11;
43479;PMS5003;29067;35.492;-97.520;2023-07-13T09:58:20;13;12;
43479;PMS5003;29067;35.492;-97.520;2023-07-13T10:00:54;12;11;
43479;PMS5003;29067;35.492;-97.520;2023-07-13T10:03:24;12;11;
43479;PMS5003;29067;35.492;-97.520;2023-07-13T10:05:53;11;11;
43479;PMS5003;29067;35.492;-97.520;2023-07-13T10:08:28;11;10;
43479;PMS5003;29067;35.492;-97.520;2023-07-13T10:10:58;11;10;
43479;PMS5003;29067;35.492;-97.520;2023-07-13T10:13:28;10;10;
43479;PMS5003;29067;35.492;-97.520;2023-07-13T10:16:00;13;12;
43479;PMS5003;29067;35.492;-97.520;2023-07-13T10:18:28;14;13;
43479;PMS5003;29067;35.492;-97.520;2023-07-13T10:21:08;11;11;
43479;PMS5003;29067;35.492;-97.520;2023-07-13T10:23:39;11;10;
43479;PMS5003;29067;35.492;-97.520;2023-07-13T10:26:09;11;10;
43479;PMS5003;29067;35.492;-97.520;2023-07-13T10:28:43;10;9;
43479;PMS5003;29067;35.492;-97.520;2023-07-13T10:31:15;11;11;
43479;PMS5003;29067;35.492;-97.520;2023-07-13T10:33:44;13;12;
43479;PMS5003;29067;35.492;-97.520;2023-07-13T10:36:14;12;11;
43479;PMS5003;29067;35.492;-97.520;2023-07-13T10:38:49;12;11;
43479;PMS5003;29067;35.492;-97.520;2023-07-13T10:41:19;9;9;
43479;PMS5003;29067;35.492;-97.520;2023-07-13T10:43:51;11;11;
43479;PMS5003;29067;35.492;-97.520;2023-07-13T10:46:22;11;10;
43479;PMS5003;29067;35.492;-97.520;2023-07-13T10:48:53;10;10;
43479;PMS5003;29067;35.492;-97.520;2023-07-13T10:51:24;11;10;
43479;PMS5003;29067;35.492;-97.520;2023-07-13T10:54:58;11;10;
43479;PMS5003;29067;35.492;-97.520;2023-07-13T10:57:28;10;9;
43479;PMS5003;29067;35.492;-97.520;2023-07-13T11:02:59;9;8;
43479;PMS5003;29067;35.492;-97.520;2023-07-13T11:05:30;10;10;
43479;PMS5003;29067;35.492;-97.520;2023-07-13T11:08:11;11;11;
43479;PMS5003;29067;35.492;-97.520;2023-07-13T11:10:47;12;10;
43479;PMS5003;29067;35.492;-97.520;2023-07-13T11:13:36;9;8;
43479;PMS5003;29067;35.492;-97.520;2023-07-13T11:16:42;13;12;
43479;PMS5003;29067;35.492;-97.520;2023-07-13T11:19:37;9;9;
43479;PMS5003;29067;35.492;-97.520;2023-07-13T11:22:12;11;11;
43479;PMS5003;29067;35.492;-97.520;2023-07-13T11:24:59;11;11;
43479;PMS5003;29067;35.492;-97.520;2023-07-13T11:27:34;11;11;
43479;PMS5003;29067;35.492;-97.520;2023-07-13T11:30:13;9;8;
43479;PMS5003;29067;35.492;-97.520;2023-07-13T11:32:50;11;11;
43479;PMS5003;29067;35.492;-97.520;2023-07-13T11:35:29;11;10;
43479;PMS5003;29067;35.492;-97.520;2023-07-13T11:37:57;10;10;
43479;PMS5003;29067;35.492;-97.520;2023-07-13T11:40:26;12;10;
43479;PMS5003;29067;35.492;-97.520;2023-07-13T11:42:59;11;10;
43479;PMS5003;29067;35.492;-97.520;2023-07-13T11:45:27;15;13;
43479;PMS5003;29067;35.492;-97.520;2023-07-13T11:47:55;9;9;
43479;PMS5003;29067;35.492;-97.520;2023-07-13T11:50:24;12;11;
43479;PMS5003;29067;35.492;-97.520;2023-07-13T11:52:52;13;12;
43479;PMS5003;29067;35.492;-97.520;2023-07-13T11:55:22;11;10;
43479;PMS5003;29067;35.492;-97.520;2023-07-13T11:57:51;11;10;
43479;PMS5003;29067;35.492;-97.520;2023-07-13T12:00:25;13;11;
43479;PMS5003;29067;35.492;-97.520;2023-07-13T12:02:56;13;13;
43479;PMS5003;29067;35.492;-97.520;2023-07-13T12:05:26;13;11;
43479;PMS5003;29067;35.492;-97.520;2023-07-13T12:07:54;11;10;
43479;PMS5003;29067;35.492;-97.520;2023-07-13T12:10:23;12;11;
43479;PMS5003;29067;35.492;-97.520;2023-07-13T12:12:54;13;11;
43479;PMS5003;29067;35.492;-97.520;2023-07-13T12:15:27;14;12;
43479;PMS5003;29067;35.492;-97.520;2023-07-13T12:18:03;15;14;
43479;PMS5003;29067;35.492;-97.520;2023-07-13T12:20:38;12;12;
43479;PMS5003;29067;35.492;-97.520;2023-07-13T12:23:10;16;13;
43479;PMS5003;29067;35.492;-97.520;2023-07-13T12:25:47;11;11;
43479;PMS5003;29067;35.492;-97.520;2023-07-13T12:28:35;14;14;
43479;PMS5003;29067;35.492;-97.520;2023-07-13T12:31:05;12;12;
43479;PMS5003;29067;35.492;-97.520;2023-07-13T12:33:47;11;11;
43479;PMS5003;29067;35.492;-97.520;2023-07-13T12:36:15;14;13;
43479;PMS5003;29067;35.492;-97.520;2023-07-13T12:38:45;21;20;
43479;PMS5003;29067;35.492;-97.520;2023-07-13T12:41:14;25;23;
43479;PMS5003;29067;35.492;-97.520;2023-07-13T12:43:42;22;22;
43479;PMS5003;29067;35.492;-97.520;2023-07-13T12:46:16;17;16;
43479;PMS5003;29067;35.492;-97.520;2023-07-13T12:48:48;14;12;
43479;PMS5003;29067;35.492;-97.520;2023-07-13T12:51:20;17;15;
43479;PMS5003;29067;35.492;-97.520;2023-07-13T12:53:50;15;13;
43479;PMS5003;29067;35.492;-97.520;2023-07-13T12:56:25;17;17;
43479;PMS5003;29067;35.492;-97.520;2023-07-13T12:58:56;15;15;
43479;PMS5003;29067;35.492;-97.520;2023-07-13T13:01:27;15;13;
43479;PMS5003;29067;35.492;-97.520;2023-07-13T13:03:56;13;12;
43479;PMS5003;29067;35.492;-97.520;2023-07-13T13:06:28;14;13;
43479;PMS5003;29067;35.492;-97.520;2023-07-13T13:08:57;12;11;
43479;PMS5003;29067;35.492;-97.520;2023-07-13T13:11:27;12;11;
43479;PMS5003;29067;35.492;-97.520;2023-07-13T13:13:57;13;11;
43479;PMS5003;29067;35.492;-97.520;2023-07-13T13:16:29;12;11;
43479;PMS5003;29067;35.492;-97.520;2023-07-13T13:18:59;14;11;
43479;PMS5003;29067;35.492;-97.520;2023-07-13T13:21:39;12;11;
43479;PMS5003;29067;35.492;-97.520;2023-07-13T13:24:10;12;10;
43479;PMS5003;29067;35.492;-97.520;2023-07-13T13:26:39;10;10;
43479;PMS5003;29067;35.492;-97.520;2023-07-13T13:29:11;10;10;
43479;PMS5003;29067;35.492;-97.520;2023-07-13T13:31:40;13;13;
43479;PMS5003;29067;35.492;-97.520;2023-07-13T13:34:08;12;11;
43479;PMS5003;29067;35.492;-97.520;2023-07-13T13:36:38;11;10;
43479;PMS5003;29067;35.492;-97.520;2023-07-13T13:39:15;9;9;
43479;PMS5003;29067;35.492;-97.520;2023-07-13T13:41:47;12;11;
43479;PMS5003;29067;35.492;-97.520;2023-07-13T13:44:16;11;11;
43479;PMS5003;29067;35.492;-97.520;2023-07-13T13:46:45;14;13;
43479;PMS5003;29067;35.492;-97.520;2023-07-13T13:49:15;12;11;
43479;PMS5003;29067;35.492;-97.520;2023-07-13T13:51:46;12;12;
43479;PMS5003;29067;35.492;-97.520;2023-07-13T13:54:16;13;13;
43479;PMS5003;29067;35.492;-97.520;2023-07-13T13:56:46;13;11;
43479;PMS5003;29067;35.492;-97.520;2023-07-13T13:59:15;12;10;
43479;PMS5003;29067;35.492;-97.520;2023-07-13T14:01:44;10;10;
43479;PMS5003;29067;35.492;-97.520;2023-07-13T14:04:14;12;11;
43479;PMS5003;29067;35.492;-97.520;2023-07-13T14:06:44;13;11;
43479;PMS5003;29067;35.492;-97.520;2023-07-13T14:09:14;10;9;
43479;PMS5003;29067;35.492;-97.520;2023-07-13T14:11:44;10;8;
43479;PMS5003;29067;35.492;-97.520;2023-07-13T14:14:15;12;11;
43479;PMS5003;29067;35.492;-97.520;2023-07-13T14:16:45;8;8;
43479;PMS5003;29067;35.492;-97.520;2023-07-13T14:19:14;12;11;
43479;PMS5003;29067;35.492;-97.520;2023-07-13T14:21:43;11;11;
43479;PMS5003;29067;35.492;-97.520;2023-07-13T14:24:11;9;9;
43479;PMS5003;29067;35.492;-97.520;2023-07-13T14:26:40;11;9;
43479;PMS5003;29067;35.492;-97.520;2023-07-13T14:29:11;11;10;
43479;PMS5003;29067;35.492;-97.520;2023-07-13T14:31:41;10;10;
43479;PMS5003;29067;35.492;-97.520;2023-07-13T14:34:10;12;11;
43479;PMS5003;29067;35.492;-97.520;2023-07-13T14:36:39;29;29;
43479;PMS5003;29067;35.492;-97.520;2023-07-13T14:39:11;17;17;
43479;PMS5003;29067;35.492;-97.520;2023-07-13T14:41:41;23;22;
43479;PMS5003;29067;35.492;-97.520;2023-07-13T14:44:11;21;20;
43479;PMS5003;29067;35.492;-97.520;2023-07-13T14:46:39;23;23;
43479;PMS5003;29067;35.492;-97.520;2023-07-13T14:49:12;42;41;
43479;PMS5003;29067;35.492;-97.520;2023-07-13T14:51:43;58;57;
43479;PMS5003;29067;35.492;-97.520;2023-07-13T14:54:11;34;33;
43479;PMS5003;29067;35.492;-97.520;2023-07-13T14:56:40;17;15;
43479;PMS5003;29067;35.492;-97.520;2023-07-13T14:59:08;16;14;
43479;PMS5003;29067;35.492;-97.520;2023-07-13T15:01:36;14;13;
43479;PMS5003;29067;35.492;-97.520;2023-07-13T15:04:05;16;16;
43479;PMS5003;29067;35.492;-97.520;2023-07-13T15:06:52;11;11;
43479;PMS5003;29067;35.492;-97.520;2023-07-13T15:09:21;13;12;
43479;PMS5003;29067;35.492;-97.520;2023-07-13T15:11:49;15;13;
43479;PMS5003;29067;35.492;-97.520;2023-07-13T15:14:17;16;15;
43479;PMS5003;29067;35.492;-97.520;2023-07-13T15:16:46;12;12;
43479;PMS5003;29067;35.492;-97.520;2023-07-13T15:19:17;10;8;
43479;PMS5003;29067;35.492;-97.520;2023-07-13T15:21:46;9;9;
43479;PMS5003;29067;35.492;-97.520;2023-07-13T15:24:15;9;9;
43479;PMS5003;29067;35.492;-97.520;2023-07-13T15:26:43;9;8;
43479;PMS5003;29067;35.492;-97.520;2023-07-13T15:29:11;8;8;
43479;PMS5003;29067;35.492;-97.520;2023-07-13T15:31:40;10;9;
43479;PMS5003;29067;35.492;-97.520;2023-07-13T15:34:11;10;9;
43479;PMS5003;29067;35.492;-97.520;2023-07-13T15:36:39;8;7;
43479;PMS5003;29067;35.492;-97.520;2023-07-13T15:39:08;11;10;
43479;PMS5003;29067;35.492;-97.520;2023-07-13T15:41:51;10;8;
43479;PMS5003;29067;35.492;-97.520;2023-07-13T15:44:22;8;7;
43479;PMS5003;29067;35.492;-97.520;2023-07-13T15:46:53;9;8;
43479;PMS5003;29067;35.492;-97.520;2023-07-13T15:49:21;9;8;
43479;PMS5003;29067;35.492;-97.520;2023-07-13T15:51:50;8;8;
43479;PMS5003;29067;35.492;-97.520;2023-07-13T15:54:18;7;7;
43479;PMS5003;29067;35.492;-97.520;2023-07-13T15:56:47;7;7;
43479;PMS5003;29067;35.492;-97.520;2023-07-13T15:59:20;8;7;
43479;PMS5003;29067;35.492;-97.520;2023-07-13T16:01:48;9;8;
43479;PMS5003;29067;35.492;-97.520;2023-07-13T16:04:17;9;7;
43479;PMS5003;29067;35.492;-97.520;2023-07-13T16:06:45;9;8;
43479;PMS5003;29067;35.492;-97.520;2023-07-13T16:09:17;8;8;
43479;PMS5003;29067;35.492;-97.520;2023-07-13T16:11:47;14;8;
43479;PMS5003;29067;35.492;-97.520;2023-07-13T16:14:15;9;8;
43479;PMS5003;29067;35.492;-97.520;2023-07-13T16:16:43;8;7;
43479;PMS5003;29067;35.492;-97.520;2023-07-13T16:19:12;8;8;
43479;PMS5003;29067;35.492;-97.520;2023-07-13T16:21:41;8;8;